sensor_id;sensor_type;location;lat;lon;timestamp;P1;durP1;ratioP1;P2;durP2;ratioP2
16147;SDS011;8179;59.364;18.018;2022-12-24T00:00:32;20.43;;;19.50;;
16147;SDS011;8179;59.364;18.018;2022-12-24T00:03:00;17.60;;;17.00;;
16147;SDS011;8179;59.364;18.018;2022-12-24T00:05:26;19.03;;;18.23;;
16147;SDS011;8179;59.364;18.018;2022-12-24T00:07:53;17.70;;;16.90;;
16147;SDS011;8179;59.364;18.018;2022-12-24T00:10:19;19.40;;;18.20;;
16147;SDS011;8179;59.364;18.018;2022-12-24T00:12:46;18.83;;;17.93;;
16147;SDS011;8179;59.364;18.018;2022-12-24T00:15:13;17.17;;;16.47;;
16147;SDS011;8179;59.364;18.018;2022-12-24T00:17:39;20.00;;;19.20;;
16147;SDS011;8179;59.364;18.018;2022-12-24T00:20:08;18.00;;;17.17;;
16147;SDS011;8179;59.364;18.018;2022-12-24T00:22:35;17.70;;;17.03;;
16147;SDS011;8179;59.364;18.018;2022-12-24T00:25:01;17.60;;;16.67;;
16147;SDS011;8179;59.364;18.018;2022-12-24T00:27:28;16.77;;;16.00;;
16147;SDS011;8179;59.364;18.018;2022-12-24T00:29:54;17.10;;;16.20;;
16147;SDS011;8179;59.364;18.018;2022-12-24T00:32:21;16.33;;;15.53;;
16147;SDS011;8179;59.364;18.018;2022-12-24T00:34:48;22.87;;;21.93;;
16147;SDS011;8179;59.364;18.018;2022-12-24T00:37:16;15.93;;;15.33;;
16147;SDS011;8179;59.364;18.018;2022-12-24T00:39:42;20.23;;;19.13;;
16147;SDS011;8179;59.364;18.018;2022-12-24T00:42:09;19.17;;;18.10;;
16147;SDS011;8179;59.364;18.018;2022-12-24T00:44:35;18.63;;;17.80;;
16147;SDS011;8179;59.364;18.018;2022-12-24T00:47:02;17.17;;;16.37;;
16147;SDS011;8179;59.364;18.018;2022-12-24T00:49:28;17.50;;;16.77;;
16147;SDS011;8179;59.364;18.018;2022-12-24T00:51:55;18.37;;;17.50;;
16147;SDS011;8179;59.364;18.018;2022-12-24T00:54:23;17.33;;;16.53;;
16147;SDS011;8179;59.364;18.018;2022-12-24T00:56:50;17.20;;;16.43;;
16147;SDS011;8179;59.364;18.018;2022-12-24T00:59:16;17.70;;;16.60;;
16147;SDS011;8179;59.364;18.018;2022-12-24T01:01:43;16.70;;;15.80;;
16147;SDS011;8179;59.364;18.018;2022-12-24T01:04:09;18.50;;;17.60;;
16147;SDS011;8179;59.364;18.018;2022-12-24T01:06:53;20.50;;;19.50;;
16147;SDS011;8179;59.364;18.018;2022-12-24T01:09:22;17.47;;;16.57;;
16147;SDS011;8179;59.364;18.018;2022-12-24T01:11:49;18.33;;;17.43;;
16147;SDS011;8179;59.364;18.018;2022-12-24T01:14:15;17.83;;;17.03;;
16147;SDS011;8179;59.364;18.018;2022-12-24T01:16:42;18.30;;;17.60;;
16147;SDS011;8179;59.364;18.018;2022-12-24T01:19:09;18.13;;;17.33;;
16147;SDS011;8179;59.364;18.018;2022-12-24T01:21:35;19.70;;;18.80;;
16147;SDS011;8179;59.364;18.018;2022-12-24T01:24:02;30.47;;;29.27;;
16147;SDS011;8179;59.364;18.018;2022-12-24T01:26:30;17.47;;;16.77;;
16147;SDS011;8179;59.364;18.018;2022-12-24T01:28:56;17.50;;;16.90;;
16147;SDS011;8179;59.364;18.018;2022-12-24T01:31:23;19.07;;;18.33;;
16147;SDS011;8179;59.364;18.018;2022-12-24T01:33:50;16.10;;;15.50;;
16147;SDS011;8179;59.364;18.018;2022-12-24T01:36:16;23.50;;;22.50;;
16147;SDS011;8179;59.364;18.018;2022-12-24T01:38:43;17.63;;;16.50;;
16147;SDS011;8179;59.364;18.018;2022-12-24T01:41:13;17.90;;;17.23;;
16147;SDS011;8179;59.364;18.018;2022-12-24T01:46:40;27.17;;;26.10;;
16147;SDS011;8179;59.364;18.018;2022-12-24T01:49:07;31.23;;;30.13;;
16147;SDS011;8179;59.364;18.018;2022-12-24T01:51:37;39.13;;;37.80;;
16147;SDS011;8179;59.364;18.018;2022-12-24T01:54:04;25.93;;;25.00;;
16147;SDS011;8179;59.364;18.018;2022-12-24T01:56:32;21.60;;;20.70;;
16147;SDS011;8179;59.364;18.018;2022-12-24T01:59:02;20.53;;;19.73;;
16147;SDS011;8179;59.364;18.018;2022-12-24T02:01:30;21.33;;;20.63;;
16147;SDS011;8179;59.364;18.018;2022-12-24T02:03:58;20.10;;;19.37;;
16147;SDS011;8179;59.364;18.018;2022-12-24T02:06:25;15.80;;;14.77;;
16147;SDS011;8179;59.364;18.018;2022-12-24T02:08:52;16.87;;;16.17;;
16147;SDS011;8179;59.364;18.018;2022-12-24T02:11:20;16.17;;;15.47;;
16147;SDS011;8179;59.364;18.018;2022-12-24T02:13:48;15.87;;;15.10;;
16147;SDS011;8179;59.364;18.018;2022-12-24T02:16:20;16.47;;;15.77;;
16147;SDS011;8179;59.364;18.018;2022-12-24T02:18:55;17.50;;;16.90;;
16147;SDS011;8179;59.364;18.018;2022-12-24T02:26:57;21.77;;;20.97;;
16147;SDS011;8179;59.364;18.018;2022-12-24T02:29:31;20.47;;;19.77;;
16147;SDS011;8179;59.364;18.018;2022-12-24T02:32:03;32.43;;;31.27;;
16147;SDS011;8179;59.364;18.018;2022-12-24T02:34:32;24.57;;;23.63;;
16147;SDS011;8179;59.364;18.018;2022-12-24T02:37:03;20.23;;;19.43;;
16147;SDS011;8179;59.364;18.018;2022-12-24T02:39:32;17.90;;;17.30;;
16147;SDS011;8179;59.364;18.018;2022-12-24T02:42:02;16.13;;;15.53;;
16147;SDS011;8179;59.364;18.018;2022-12-24T02:44:33;18.43;;;17.53;;
16147;SDS011;8179;59.364;18.018;2022-12-24T02:47:00;16.80;;;15.93;;
16147;SDS011;8179;59.364;18.018;2022-12-24T02:49:29;20.47;;;19.37;;
16147;SDS011;8179;59.364;18.018;2022-12-24T02:51:56;30.07;;;28.87;;
16147;SDS011;8179;59.364;18.018;2022-12-24T02:54:22;17.27;;;16.57;;
16147;SDS011;8179;59.364;18.018;2022-12-24T02:56:57;18.43;;;17.73;;
16147;SDS011;8179;59.364;18.018;2022-12-24T02:59:38;18.63;;;17.73;;
16147;SDS011;8179;59.364;18.018;2022-12-24T03:02:11;17.80;;;17.17;;
16147;SDS011;8179;59.364;18.018;2022-12-24T03:04:46;17.83;;;17.10;;
16147;SDS011;8179;59.364;18.018;2022-12-24T03:07:14;18.20;;;17.17;;
16147;SDS011;8179;59.364;18.018;2022-12-24T03:09:46;16.97;;;16.13;;
16147;SDS011;8179;59.364;18.018;2022-12-24T03:12:17;16.80;;;16.20;;
16147;SDS011;8179;59.364;18.018;2022-12-24T03:14:45;17.27;;;16.60;;
16147;SDS011;8179;59.364;18.018;2022-12-24T03:17:13;27.13;;;26.17;;
16147;SDS011;8179;59.364;18.018;2022-12-24T03:19:40;25.47;;;24.57;;
16147;SDS011;8179;59.364;18.018;2022-12-24T03:22:08;24.43;;;23.57;;
16147;SDS011;8179;59.364;18.018;2022-12-24T03:24:36;41.20;;;39.73;;
16147;SDS011;8179;59.364;18.018;2022-12-24T03:27:02;28.43;;;27.23;;
16147;SDS011;8179;59.364;18.018;2022-12-24T03:29:29;23.43;;;22.37;;
16147;SDS011;8179;59.364;18.018;2022-12-24T03:31:57;38.47;;;36.60;;
16147;SDS011;8179;59.364;18.018;2022-12-24T03:34:25;26.27;;;25.37;;
16147;SDS011;8179;59.364;18.018;2022-12-24T03:36:51;26.60;;;25.60;;
16147;SDS011;8179;59.364;18.018;2022-12-24T03:39:19;21.43;;;20.53;;
16147;SDS011;8179;59.364;18.018;2022-12-24T03:41:46;21.57;;;20.77;;
16147;SDS011;8179;59.364;18.018;2022-12-24T03:44:13;18.83;;;18.23;;
16147;SDS011;8179;59.364;18.018;2022-12-24T03:46:39;15.80;;;14.83;;
16147;SDS011;8179;59.364;18.018;2022-12-24T03:49:06;17.93;;;17.23;;
16147;SDS011;8179;59.364;18.018;2022-12-24T03:51:32;17.63;;;16.80;;
16147;SDS011;8179;59.364;18.018;2022-12-24T03:53:59;16.83;;;16.13;;
16147;SDS011;8179;59.364;18.018;2022-12-24T03:56:27;16.60;;;15.80;;
16147;SDS011;8179;59.364;18.018;2022-12-24T03:58:53;16.50;;;15.80;;
16147;SDS011;8179;59.364;18.018;2022-12-24T04:01:20;15.00;;;14.50;;
16147;SDS011;8179;59.364;18.018;2022-12-24T04:03:46;16.87;;;16.37;;
16147;SDS011;8179;59.364;18.018;2022-12-24T04:06:13;17.23;;;16.57;;
16147;SDS011;8179;59.364;18.018;2022-12-24T04:08:41;28.57;;;27.60;;
16147;SDS011;8179;59.364;18.018;2022-12-24T04:11:09;16.77;;;16.17;;
16147;SDS011;8179;59.364;18.018;2022-12-24T04:13:38;22.80;;;21.47;;
16147;SDS011;8179;59.364;18.018;2022-12-24T04:16:05;62.83;;;60.90;;
16147;SDS011;8179;59.364;18.018;2022-12-24T04:18:32;18.70;;;17.97;;
16147;SDS011;8179;59.364;18.018;2022-12-24T04:20:59;29.27;;;28.27;;
16147;SDS011;8179;59.364;18.018;2022-12-24T04:23:25;15.90;;;15.23;;
16147;SDS011;8179;59.364;18.018;2022-12-24T04:25:52;16.10;;;15.50;;
16147;SDS011;8179;59.364;18.018;2022-12-24T04:28:19;24.47;;;23.60;;
16147;SDS011;8179;59.364;18.018;2022-12-24T04:30:46;19.10;;;18.40;;
16147;SDS011;8179;59.364;18.018;2022-12-24T04:33:13;17.37;;;16.67;;
16147;SDS011;8179;59.364;18.018;2022-12-24T04:35:40;23.60;;;22.53;;
16147;SDS011;8179;59.364;18.018;2022-12-24T04:38:06;17.87;;;17.03;;
16147;SDS011;8179;59.364;18.018;2022-12-24T04:40:33;19.10;;;18.50;;
16147;SDS011;8179;59.364;18.018;2022-12-24T04:43:00;32.43;;;31.37;;
16147;SDS011;8179;59.364;18.018;2022-12-24T04:45:26;15.23;;;14.73;;
16147;SDS011;8179;59.364;18.018;2022-12-24T04:47:54;18.83;;;18.23;;
16147;SDS011;8179;59.364;18.018;2022-12-24T04:50:21;16.43;;;15.70;;
16147;SDS011;8179;59.364;18.018;2022-12-24T04:52:47;17.60;;;16.90;;
16147;SDS011;8179;59.364;18.018;2022-12-24T04:55:14;14.80;;;14.07;;
16147;SDS011;8179;59.364;18.018;2022-12-24T04:57:40;21.43;;;20.67;;
16147;SDS011;8179;59.364;18.018;2022-12-24T05:00:07;18.77;;;17.77;;
16147;SDS011;8179;59.364;18.018;2022-12-24T05:02:34;18.23;;;17.57;;
16147;SDS011;8179;59.364;18.018;2022-12-24T05:05:02;21.33;;;20.43;;
16147;SDS011;8179;59.364;18.018;2022-12-24T05:07:29;18.17;;;17.47;;
16147;SDS011;8179;59.364;18.018;2022-12-24T05:09:55;17.13;;;16.60;;
16147;SDS011;8179;59.364;18.018;2022-12-24T05:12:22;23.83;;;23.03;;
16147;SDS011;8179;59.364;18.018;2022-12-24T05:14:49;17.40;;;16.77;;
16147;SDS011;8179;59.364;18.018;2022-12-24T05:17:15;21.13;;;20.17;;
16147;SDS011;8179;59.364;18.018;2022-12-24T05:19:42;16.67;;;15.97;;
16147;SDS011;8179;59.364;18.018;2022-12-24T05:22:10;21.40;;;20.50;;
16147;SDS011;8179;59.364;18.018;2022-12-24T05:24:54;19.07;;;18.37;;
16147;SDS011;8179;59.364;18.018;2022-12-24T05:27:38;19.17;;;18.47;;
16147;SDS011;8179;59.364;18.018;2022-12-24T05:30:05;18.63;;;17.93;;
16147;SDS011;8179;59.364;18.018;2022-12-24T05:32:31;18.00;;;17.30;;
16147;SDS011;8179;59.364;18.018;2022-12-24T05:34:58;36.20;;;35.00;;
16147;SDS011;8179;59.364;18.018;2022-12-24T05:37:26;22.43;;;21.70;;
16147;SDS011;8179;59.364;18.018;2022-12-24T05:39:53;25.50;;;24.50;;
16147;SDS011;8179;59.364;18.018;2022-12-24T05:42:19;19.23;;;18.63;;
16147;SDS011;8179;59.364;18.018;2022-12-24T05:44:46;27.33;;;26.40;;
16147;SDS011;8179;59.364;18.018;2022-12-24T05:47:12;20.53;;;19.77;;
16147;SDS011;8179;59.364;18.018;2022-12-24T05:49:39;18.10;;;17.50;;
16147;SDS011;8179;59.364;18.018;2022-12-24T05:52:07;16.80;;;16.20;;
16147;SDS011;8179;59.364;18.018;2022-12-24T05:54:35;20.80;;;20.10;;
16147;SDS011;8179;59.364;18.018;2022-12-24T05:57:02;19.70;;;18.90;;
16147;SDS011;8179;59.364;18.018;2022-12-24T05:59:28;24.20;;;23.40;;
16147;SDS011;8179;59.364;18.018;2022-12-24T06:01:55;16.57;;;16.00;;
16147;SDS011;8179;59.364;18.018;2022-12-24T06:04:21;26.00;;;24.80;;
16147;SDS011;8179;59.364;18.018;2022-12-24T06:06:48;19.90;;;19.10;;
16147;SDS011;8179;59.364;18.018;2022-12-24T06:09:14;20.17;;;19.27;;
16147;SDS011;8179;59.364;18.018;2022-12-24T06:11:42;19.67;;;18.77;;
16147;SDS011;8179;59.364;18.018;2022-12-24T06:14:09;21.13;;;20.33;;
16147;SDS011;8179;59.364;18.018;2022-12-24T06:16:35;20.90;;;20.07;;
16147;SDS011;8179;59.364;18.018;2022-12-24T06:19:02;21.03;;;19.93;;
16147;SDS011;8179;59.364;18.018;2022-12-24T06:21:29;16.67;;;15.87;;
16147;SDS011;8179;59.364;18.018;2022-12-24T06:23:55;22.83;;;21.83;;
16147;SDS011;8179;59.364;18.018;2022-12-24T06:26:22;20.97;;;20.17;;
16147;SDS011;8179;59.364;18.018;2022-12-24T06:28:50;21.33;;;20.50;;
16147;SDS011;8179;59.364;18.018;2022-12-24T06:31:17;17.70;;;17.00;;
16147;SDS011;8179;59.364;18.018;2022-12-24T06:33:44;16.30;;;15.53;;
16147;SDS011;8179;59.364;18.018;2022-12-24T06:36:12;20.73;;;19.87;;
16147;SDS011;8179;59.364;18.018;2022-12-24T06:38:38;28.10;;;27.20;;
16147;SDS011;8179;59.364;18.018;2022-12-24T06:41:05;19.03;;;18.13;;
16147;SDS011;8179;59.364;18.018;2022-12-24T06:43:32;18.90;;;17.97;;
16147;SDS011;8179;59.364;18.018;2022-12-24T06:46:01;18.63;;;17.87;;
16147;SDS011;8179;59.364;18.018;2022-12-24T06:48:28;21.63;;;20.77;;
16147;SDS011;8179;59.364;18.018;2022-12-24T06:50:55;22.00;;;21.10;;
16147;SDS011;8179;59.364;18.018;2022-12-24T06:53:21;17.77;;;17.07;;
16147;SDS011;8179;59.364;18.018;2022-12-24T06:55:48;21.00;;;20.20;;
16147;SDS011;8179;59.364;18.018;2022-12-24T06:58:14;17.53;;;16.87;;
16147;SDS011;8179;59.364;18.018;2022-12-24T07:00:41;21.63;;;20.93;;
16147;SDS011;8179;59.364;18.018;2022-12-24T07:03:09;24.20;;;23.37;;
16147;SDS011;8179;59.364;18.018;2022-12-24T07:05:36;22.87;;;21.87;;
16147;SDS011;8179;59.364;18.018;2022-12-24T07:08:02;22.13;;;21.07;;
16147;SDS011;8179;59.364;18.018;2022-12-24T07:10:29;20.40;;;19.27;;
16147;SDS011;8179;59.364;18.018;2022-12-24T07:12:55;16.00;;;15.20;;
16147;SDS011;8179;59.364;18.018;2022-12-24T07:15:22;16.77;;;16.00;;
16147;SDS011;8179;59.364;18.018;2022-12-24T07:17:48;24.63;;;23.73;;
16147;SDS011;8179;59.364;18.018;2022-12-24T07:20:16;19.70;;;18.87;;
16147;SDS011;8179;59.364;18.018;2022-12-24T07:22:43;19.93;;;19.13;;
16147;SDS011;8179;59.364;18.018;2022-12-24T07:25:09;17.50;;;16.00;;
16147;SDS011;8179;59.364;18.018;2022-12-24T07:27:36;23.90;;;23.00;;
16147;SDS011;8179;59.364;18.018;2022-12-24T07:30:03;21.87;;;20.93;;
16147;SDS011;8179;59.364;18.018;2022-12-24T07:32:30;17.33;;;16.63;;
16147;SDS011;8179;59.364;18.018;2022-12-24T07:34:57;22.73;;;21.93;;
16147;SDS011;8179;59.364;18.018;2022-12-24T07:37:25;20.67;;;19.90;;
16147;SDS011;8179;59.364;18.018;2022-12-24T07:39:51;22.33;;;21.33;;
16147;SDS011;8179;59.364;18.018;2022-12-24T07:42:18;21.50;;;20.70;;
16147;SDS011;8179;59.364;18.018;2022-12-24T07:44:44;34.83;;;33.47;;
16147;SDS011;8179;59.364;18.018;2022-12-24T07:47:11;27.13;;;25.77;;
16147;SDS011;8179;59.364;18.018;2022-12-24T07:49:38;20.20;;;19.40;;
16147;SDS011;8179;59.364;18.018;2022-12-24T07:52:04;17.23;;;16.53;;
16147;SDS011;8179;59.364;18.018;2022-12-24T07:54:32;21.33;;;20.43;;
16147;SDS011;8179;59.364;18.018;2022-12-24T07:56:59;17.30;;;16.50;;
16147;SDS011;8179;59.364;18.018;2022-12-24T07:59:25;25.40;;;24.37;;
16147;SDS011;8179;59.364;18.018;2022-12-24T08:01:52;20.00;;;19.13;;
16147;SDS011;8179;59.364;18.018;2022-12-24T08:04:18;20.07;;;18.97;;
16147;SDS011;8179;59.364;18.018;2022-12-24T08:06:45;23.60;;;22.63;;
16147;SDS011;8179;59.364;18.018;2022-12-24T08:09:12;19.07;;;18.20;;
16147;SDS011;8179;59.364;18.018;2022-12-24T08:11:42;21.07;;;20.17;;
16147;SDS011;8179;59.364;18.018;2022-12-24T08:14:08;19.90;;;19.03;;
16147;SDS011;8179;59.364;18.018;2022-12-24T08:16:35;19.90;;;18.70;;
16147;SDS011;8179;59.364;18.018;2022-12-24T08:19:01;25.60;;;24.37;;
16147;SDS011;8179;59.364;18.018;2022-12-24T08:21:28;21.40;;;20.23;;
16147;SDS011;8179;59.364;18.018;2022-12-24T08:23:54;26.77;;;25.80;;
16147;SDS011;8179;59.364;18.018;2022-12-24T08:26:21;24.67;;;23.57;;
16147;SDS011;8179;59.364;18.018;2022-12-24T08:28:49;58.33;;;56.20;;
16147;SDS011;8179;59.364;18.018;2022-12-24T08:31:15;38.27;;;36.90;;
16147;SDS011;8179;59.364;18.018;2022-12-24T08:33:42;31.50;;;30.30;;
16147;SDS011;8179;59.364;18.018;2022-12-24T08:36:08;26.33;;;25.13;;
16147;SDS011;8179;59.364;18.018;2022-12-24T08:38:35;22.33;;;21.50;;
16147;SDS011;8179;59.364;18.018;2022-12-24T08:41:01;21.23;;;20.33;;
16147;SDS011;8179;59.364;18.018;2022-12-24T08:43:28;23.10;;;22.10;;
16147;SDS011;8179;59.364;18.018;2022-12-24T08:45:59;18.43;;;17.73;;
16147;SDS011;8179;59.364;18.018;2022-12-24T08:48:26;41.70;;;40.00;;
16147;SDS011;8179;59.364;18.018;2022-12-24T08:50:53;32.97;;;31.60;;
16147;SDS011;8179;59.364;18.018;2022-12-24T08:53:19;27.63;;;26.47;;
16147;SDS011;8179;59.364;18.018;2022-12-24T08:55:46;26.50;;;25.27;;
16147;SDS011;8179;59.364;18.018;2022-12-24T08:58:13;19.83;;;18.73;;
16147;SDS011;8179;59.364;18.018;2022-12-24T09:00:39;57.03;;;55.13;;
16147;SDS011;8179;59.364;18.018;2022-12-24T09:03:09;21.40;;;20.40;;
16147;SDS011;8179;59.364;18.018;2022-12-24T09:05:38;44.40;;;42.67;;
16147;SDS011;8179;59.364;18.018;2022-12-24T09:08:04;26.60;;;25.50;;
16147;SDS011;8179;59.364;18.018;2022-12-24T09:10:31;36.83;;;35.43;;
16147;SDS011;8179;59.364;18.018;2022-12-24T09:12:58;35.57;;;34.27;;
16147;SDS011;8179;59.364;18.018;2022-12-24T09:15:24;41.10;;;39.50;;
16147;SDS011;8179;59.364;18.018;2022-12-24T09:17:51;36.73;;;35.17;;
16147;SDS011;8179;59.364;18.018;2022-12-24T09:20:19;56.10;;;54.07;;
16147;SDS011;8179;59.364;18.018;2022-12-24T09:22:45;51.00;;;49.07;;
16147;SDS011;8179;59.364;18.018;2022-12-24T09:25:12;82.17;;;79.23;;
16147;SDS011;8179;59.364;18.018;2022-12-24T09:27:38;56.40;;;54.27;;
16147;SDS011;8179;59.364;18.018;2022-12-24T09:30:05;25.20;;;24.13;;
16147;SDS011;8179;59.364;18.018;2022-12-24T09:32:32;31.37;;;29.90;;
16147;SDS011;8179;59.364;18.018;2022-12-24T09:34:59;49.67;;;47.73;;
16147;SDS011;8179;59.364;18.018;2022-12-24T09:37:27;43.83;;;41.73;;
16147;SDS011;8179;59.364;18.018;2022-12-24T09:39:53;23.03;;;22.03;;
16147;SDS011;8179;59.364;18.018;2022-12-24T09:42:23;23.50;;;22.50;;
16147;SDS011;8179;59.364;18.018;2022-12-24T09:44:55;28.27;;;26.17;;
16147;SDS011;8179;59.364;18.018;2022-12-24T09:47:24;39.03;;;37.53;;
16147;SDS011;8179;59.364;18.018;2022-12-24T09:49:52;36.80;;;35.10;;
16147;SDS011;8179;59.364;18.018;2022-12-24T09:52:22;53.17;;;51.33;;
16147;SDS011;8179;59.364;18.018;2022-12-24T09:54:57;84.87;;;82.10;;
16147;SDS011;8179;59.364;18.018;2022-12-24T09:57:27;45.10;;;43.37;;
16147;SDS011;8179;59.364;18.018;2022-12-24T09:59:55;39.60;;;37.80;;
16147;SDS011;8179;59.364;18.018;2022-12-24T10:02:21;44.23;;;42.50;;
16147;SDS011;8179;59.364;18.018;2022-12-24T10:04:48;54.73;;;52.40;;
16147;SDS011;8179;59.364;18.018;2022-12-24T10:07:19;59.87;;;56.97;;
16147;SDS011;8179;59.364;18.018;2022-12-24T10:09:50;69.90;;;67.50;;
16147;SDS011;8179;59.364;18.018;2022-12-24T10:12:24;38.03;;;36.57;;
16147;SDS011;8179;59.364;18.018;2022-12-24T10:14:55;92.23;;;88.87;;
16147;SDS011;8179;59.364;18.018;2022-12-24T10:17:30;61.13;;;58.80;;
16147;SDS011;8179;59.364;18.018;2022-12-24T10:20:01;59.37;;;57.17;;
16147;SDS011;8179;59.364;18.018;2022-12-24T10:22:31;68.77;;;66.17;;
16147;SDS011;8179;59.364;18.018;2022-12-24T10:25:02;56.97;;;54.67;;
16147;SDS011;8179;59.364;18.018;2022-12-24T10:27:31;62.40;;;60.13;;
16147;SDS011;8179;59.364;18.018;2022-12-24T10:30:00;114.77;;;110.40;;
16147;SDS011;8179;59.364;18.018;2022-12-24T10:32:28;38.87;;;37.10;;
16147;SDS011;8179;59.364;18.018;2022-12-24T10:34:57;59.83;;;57.77;;
16147;SDS011;8179;59.364;18.018;2022-12-24T10:37:24;33.37;;;31.87;;
16147;SDS011;8179;59.364;18.018;2022-12-24T10:39:52;74.33;;;71.83;;
16147;SDS011;8179;59.364;18.018;2022-12-24T10:42:19;53.00;;;51.17;;
16147;SDS011;8179;59.364;18.018;2022-12-24T10:44:49;88.13;;;84.83;;
16147;SDS011;8179;59.364;18.018;2022-12-24T10:47:16;42.67;;;40.97;;
16147;SDS011;8179;59.364;18.018;2022-12-24T10:49:46;29.97;;;28.77;;
16147;SDS011;8179;59.364;18.018;2022-12-24T10:52:14;67.90;;;65.50;;
16147;SDS011;8179;59.364;18.018;2022-12-24T10:57:24;54.20;;;52.10;;
16147;SDS011;8179;59.364;18.018;2022-12-24T10:59:53;55.43;;;53.60;;
16147;SDS011;8179;59.364;18.018;2022-12-24T11:02:24;59.93;;;57.90;;
16147;SDS011;8179;59.364;18.018;2022-12-24T11:04:51;34.93;;;33.23;;
16147;SDS011;8179;59.364;18.018;2022-12-24T11:07:18;34.03;;;32.73;;
16147;SDS011;8179;59.364;18.018;2022-12-24T11:09:53;81.87;;;79.07;;
16147;SDS011;8179;59.364;18.018;2022-12-24T11:12:20;44.83;;;43.13;;
16147;SDS011;8179;59.364;18.018;2022-12-24T11:14:47;185.27;;;179.53;;
16147;SDS011;8179;59.364;18.018;2022-12-24T11:17:19;95.00;;;91.93;;
16147;SDS011;8179;59.364;18.018;2022-12-24T11:19:47;85.57;;;82.83;;
16147;SDS011;8179;59.364;18.018;2022-12-24T11:22:16;54.90;;;53.07;;
16147;SDS011;8179;59.364;18.018;2022-12-24T11:24:43;68.53;;;66.03;;
16147;SDS011;8179;59.364;18.018;2022-12-24T11:27:26;75.73;;;73.00;;
16147;SDS011;8179;59.364;18.018;2022-12-24T11:29:58;90.00;;;87.00;;
16147;SDS011;8179;59.364;18.018;2022-12-24T11:32:38;130.60;;;126.43;;
16147;SDS011;8179;59.364;18.018;2022-12-24T11:35:05;31.23;;;29.97;;
16147;SDS011;8179;59.364;18.018;2022-12-24T11:37:32;74.63;;;72.13;;
16147;SDS011;8179;59.364;18.018;2022-12-24T11:39:59;95.43;;;92.07;;
16147;SDS011;8179;59.364;18.018;2022-12-24T11:42:29;50.10;;;47.83;;
16147;SDS011;8179;59.364;18.018;2022-12-24T11:44:57;41.03;;;39.43;;
16147;SDS011;8179;59.364;18.018;2022-12-24T11:47:33;47.47;;;45.83;;
16147;SDS011;8179;59.364;18.018;2022-12-24T11:50:19;110.23;;;106.60;;
16147;SDS011;8179;59.364;18.018;2022-12-24T11:52:46;82.13;;;79.23;;
16147;SDS011;8179;59.364;18.018;2022-12-24T11:55:19;76.13;;;73.13;;
16147;SDS011;8179;59.364;18.018;2022-12-24T11:57:50;52.87;;;50.80;;
16147;SDS011;8179;59.364;18.018;2022-12-24T12:00:19;50.63;;;48.70;;
16147;SDS011;8179;59.364;18.018;2022-12-24T12:02:46;72.67;;;70.03;;
16147;SDS011;8179;59.364;18.018;2022-12-24T12:05:16;42.73;;;40.97;;
16147;SDS011;8179;59.364;18.018;2022-12-24T12:07:45;64.47;;;61.83;;
16147;SDS011;8179;59.364;18.018;2022-12-24T12:10:14;120.97;;;117.23;;
16147;SDS011;8179;59.364;18.018;2022-12-24T12:12:46;62.13;;;59.83;;
16147;SDS011;8179;59.364;18.018;2022-12-24T12:15:15;72.57;;;70.17;;
16147;SDS011;8179;59.364;18.018;2022-12-24T12:17:44;46.77;;;44.93;;
16147;SDS011;8179;59.364;18.018;2022-12-24T12:20:12;114.73;;;111.03;;
16147;SDS011;8179;59.364;18.018;2022-12-24T12:22:48;50.03;;;48.27;;
16147;SDS011;8179;59.364;18.018;2022-12-24T12:25:20;92.57;;;89.40;;
16147;SDS011;8179;59.364;18.018;2022-12-24T12:27:48;109.43;;;105.67;;
16147;SDS011;8179;59.364;18.018;2022-12-24T12:30:24;67.53;;;65.17;;
16147;SDS011;8179;59.364;18.018;2022-12-24T12:32:53;80.50;;;77.77;;
16147;SDS011;8179;59.364;18.018;2022-12-24T12:35:28;50.13;;;48.20;;
16147;SDS011;8179;59.364;18.018;2022-12-24T12:37:59;55.10;;;53.00;;
16147;SDS011;8179;59.364;18.018;2022-12-24T12:40:36;38.90;;;37.40;;
16147;SDS011;8179;59.364;18.018;2022-12-24T12:43:06;47.20;;;45.47;;
16147;SDS011;8179;59.364;18.018;2022-12-24T12:45:38;58.43;;;56.20;;
16147;SDS011;8179;59.364;18.018;2022-12-24T12:48:11;39.00;;;37.50;;
16147;SDS011;8179;59.364;18.018;2022-12-24T12:50:43;43.57;;;41.60;;
16147;SDS011;8179;59.364;18.018;2022-12-24T12:53:20;30.47;;;29.27;;
16147;SDS011;8179;59.364;18.018;2022-12-24T12:55:50;60.47;;;58.37;;
16147;SDS011;8179;59.364;18.018;2022-12-24T12:58:19;53.23;;;51.37;;
16147;SDS011;8179;59.364;18.018;2022-12-24T13:00:48;35.73;;;34.33;;
16147;SDS011;8179;59.364;18.018;2022-12-24T13:09:04;82.27;;;79.33;;
16147;SDS011;8179;59.364;18.018;2022-12-24T13:11:36;44.73;;;42.80;;
16147;SDS011;8179;59.364;18.018;2022-12-24T13:14:10;48.40;;;46.33;;
16147;SDS011;8179;59.364;18.018;2022-12-24T13:16:55;40.70;;;38.93;;
16147;SDS011;8179;59.364;18.018;2022-12-24T13:19:27;53.80;;;51.93;;
16147;SDS011;8179;59.364;18.018;2022-12-24T13:21:58;48.67;;;46.83;;
16147;SDS011;8179;59.364;18.018;2022-12-24T13:24:28;40.47;;;39.00;;
16147;SDS011;8179;59.364;18.018;2022-12-24T13:27:02;38.47;;;37.07;;
16147;SDS011;8179;59.364;18.018;2022-12-24T13:29:39;70.77;;;68.30;;
16147;SDS011;8179;59.364;18.018;2022-12-24T13:34:54;38.40;;;36.87;;
16147;SDS011;8179;59.364;18.018;2022-12-24T13:37:21;28.97;;;27.70;;
16147;SDS011;8179;59.364;18.018;2022-12-24T13:40:06;37.47;;;35.97;;
16147;SDS011;8179;59.364;18.018;2022-12-24T13:42:45;54.53;;;52.43;;
16147;SDS011;8179;59.364;18.018;2022-12-24T13:47:56;46.90;;;45.17;;
16147;SDS011;8179;59.364;18.018;2022-12-24T13:50:37;41.87;;;39.90;;
16147;SDS011;8179;59.364;18.018;2022-12-24T13:53:04;32.60;;;31.10;;
16147;SDS011;8179;59.364;18.018;2022-12-24T13:55:33;41.57;;;40.03;;
16147;SDS011;8179;59.364;18.018;2022-12-24T13:58:00;27.63;;;26.53;;
16147;SDS011;8179;59.364;18.018;2022-12-24T14:00:32;39.57;;;38.03;;
16147;SDS011;8179;59.364;18.018;2022-12-24T14:03:02;59.53;;;57.37;;
16147;SDS011;8179;59.364;18.018;2022-12-24T14:05:31;30.30;;;28.90;;
16147;SDS011;8179;59.364;18.018;2022-12-24T14:07:59;27.40;;;26.20;;
16147;SDS011;8179;59.364;18.018;2022-12-24T14:10:28;26.97;;;25.77;;
16147;SDS011;8179;59.364;18.018;2022-12-24T14:12:57;37.03;;;35.37;;
16147;SDS011;8179;59.364;18.018;2022-12-24T14:18:09;39.70;;;38.07;;
16147;SDS011;8179;59.364;18.018;2022-12-24T14:20:36;24.27;;;22.73;;
16147;SDS011;8179;59.364;18.018;2022-12-24T14:23:03;34.50;;;32.87;;
16147;SDS011;8179;59.364;18.018;2022-12-24T14:25:30;28.27;;;26.80;;
16147;SDS011;8179;59.364;18.018;2022-12-24T14:27:59;24.33;;;23.13;;
16147;SDS011;8179;59.364;18.018;2022-12-24T14:30:29;27.47;;;26.13;;
16147;SDS011;8179;59.364;18.018;2022-12-24T14:32:56;24.03;;;22.80;;
16147;SDS011;8179;59.364;18.018;2022-12-24T14:35:26;20.27;;;19.17;;
16147;SDS011;8179;59.364;18.018;2022-12-24T14:37:56;23.27;;;22.13;;
16147;SDS011;8179;59.364;18.018;2022-12-24T14:40:24;24.47;;;23.30;;
16147;SDS011;8179;59.364;18.018;2022-12-24T14:42:53;24.13;;;22.10;;
16147;SDS011;8179;59.364;18.018;2022-12-24T14:45:26;26.43;;;25.07;;
16147;SDS011;8179;59.364;18.018;2022-12-24T14:47:58;25.57;;;24.33;;
16147;SDS011;8179;59.364;18.018;2022-12-24T14:50:33;24.53;;;23.33;;
16147;SDS011;8179;59.364;18.018;2022-12-24T14:53:04;22.57;;;21.30;;